Time;durP1;ratioP1;P1;durP2;ratioP2;P2;SDS_P1;SDS_P2;PMS_P1;PMS_P2;Temp;Humidity;BMP_temperature;BMP_pressure;BME280_temperature;BME280_humidity;BME280_pressure;Samples;Min_cycle;Max_cycle;Signal;HPM_P1;HPM_P2
2023/01/20 00:00:11;;;;;;;8.65;4.63;;;11.20;84.50;;;;;;5057068;28;20032;-60
2023/01/20 00:02:37;;;;;;;6.93;4.63;;;11.20;84.50;;;;;;5063077;28;20029;-59
2023/01/20 00:05:03;;;;;;;6.78;4.35;;;11.20;84.50;;;;;;5055341;28;20079;-60
2023/01/20 00:07:29;;;;;;;6.85;4.50;;;11.20;84.70;;;;;;5059144;28;20032;-60
2023/01/20 00:09:54;;;;;;;5.95;4.10;;;11.20;84.60;;;;;;5053479;28;20077;-58
2023/01/20 00:12:20;;;;;;;9.02;5.03;;;11.20;84.60;;;;;;5053663;28;20406;-59
2023/01/20 00:14:45;;;;;;;7.22;4.15;;;11.20;84.40;;;;;;5059175;28;20040;-59
2023/01/20 00:17:11;;;;;;;7.45;4.82;;;11.20;84.40;;;;;;5061110;28;20123;-56
2023/01/20 00:19:37;;;;;;;8.95;5.10;;;11.20;84.40;;;;;;5058218;28;20521;-55
2023/01/20 00:22:02;;;;;;;7.30;4.70;;;11.20;84.50;;;;;;5052398;28;20060;-56
2023/01/20 00:24:28;;;;;;;7.10;4.25;;;11.20;84.40;;;;;;5056500;28;20021;-56
2023/01/20 00:26:53;;;;;;;7.50;4.68;;;11.20;84.50;;;;;;5054333;28;20344;-55
2023/01/20 00:29:19;;;;;;;6.93;4.25;;;11.10;84.50;;;;;;5055182;28;20028;-55
2023/01/20 00:31:45;;;;;;;9.02;4.40;;;11.10;84.60;;;;;;5051503;28;20036;-55
2023/01/20 00:34:10;;;;;;;5.18;4.15;;;11.10;84.70;;;;;;5058020;28;20116;-54
2023/01/20 00:36:36;;;;;;;7.18;4.25;;;11.10;84.70;;;;;;5050195;28;20127;-58
2023/01/20 00:39:02;;;;;;;8.00;4.22;;;11.10;84.70;;;;;;5058953;28;20025;-58
2023/01/20 00:41:28;;;;;;;6.70;4.53;;;11.10;84.70;;;;;;5056088;28;20380;-55
2023/01/20 00:43:53;;;;;;;6.60;4.38;;;11.10;84.70;;;;;;5060231;28;20077;-56
2023/01/20 00:46:21;;;;;;;5.75;3.63;;;11.10;85.00;;;;;;5057684;28;20037;-59
2023/01/20 00:48:47;;;;;;;8.13;4.55;;;11.20;84.90;;;;;;5060567;28;20092;-60
2023/01/20 00:51:13;;;;;;;8.50;5.10;;;11.20;84.70;;;;;;5056923;28;20063;-54
2023/01/20 00:53:38;;;;;;;6.05;4.45;;;11.20;84.80;;;;;;5057737;28;20056;-52
2023/01/20 00:56:04;;;;;;;6.28;4.40;;;11.20;84.70;;;;;;5057637;28;20880;-60
2023/01/20 00:58:30;;;;;;;6.22;4.20;;;11.20;84.80;;;;;;5056846;28;20029;-62
2023/01/20 01:00:57;;;;;;;8.65;4.80;;;11.20;84.70;;;;;;5058074;28;20780;-51
2023/01/20 01:03:23;;;;;;;5.45;4.50;;;11.20;84.60;;;;;;5050105;28;20460;-52
2023/01/20 01:05:49;;;;;;;8.35;4.50;;;11.30;84.50;;;;;;5050172;28;20045;-58
2023/01/20 01:08:15;;;;;;;5.45;4.00;;;11.30;84.50;;;;;;5063418;28;20086;-58
2023/01/20 01:10:41;;;;;;;10.05;4.75;;;11.30;84.50;;;;;;5060668;28;20064;-52
2023/01/20 01:13:07;;;;;;;8.65;4.10;;;11.30;84.50;;;;;;5059043;28;20474;-55
2023/01/20 01:15:33;;;;;;;7.53;3.90;;;11.30;84.50;;;;;;5053139;28;20032;-62
2023/01/20 01:17:59;;;;;;;6.72;4.40;;;11.30;84.60;;;;;;5059338;28;20029;-62
2023/01/20 01:20:26;;;;;;;6.40;4.70;;;11.30;84.30;;;;;;5050463;28;20068;-60
2023/01/20 01:22:51;;;;;;;9.98;4.15;;;11.30;84.30;;;;;;5054858;28;20037;-59
2023/01/20 01:25:17;;;;;;;7.72;4.53;;;11.30;84.20;;;;;;5055327;28;20039;-62
2023/01/20 01:27:43;;;;;;;7.28;4.43;;;11.30;84.20;;;;;;5060388;28;20375;-61
2023/01/20 01:30:10;;;;;;;7.80;3.67;;;11.30;84.20;;;;;;5058227;28;20035;-63
2023/01/20 01:32:35;;;;;;;6.32;4.13;;;11.30;84.00;;;;;;5051063;28;20033;-60
2023/01/20 01:35:01;;;;;;;7.07;4.13;;;11.30;84.00;;;;;;5055097;28;20588;-60
2023/01/20 01:37:27;;;;;;;6.10;3.78;;;11.30;84.50;;;;;;5055846;28;20351;-62
2023/01/20 01:39:53;;;;;;;5.40;3.92;;;11.30;84.00;;;;;;5054628;28;20037;-61
2023/01/20 01:42:23;;;;;;;6.38;3.70;;;11.30;84.00;;;;;;5049309;28;20095;-57
2023/01/20 01:45:10;;;;;;;6.30;3.95;;;11.20;84.00;;;;;;5050890;28;20140;-57
2023/01/20 01:47:48;;;;;;;6.25;3.92;;;11.20;83.80;;;;;;5053796;28;20033;-58
2023/01/20 01:50:38;;;;;;;7.30;3.92;;;11.20;84.00;;;;;;5065721;28;20090;-58
2023/01/20 01:53:05;;;;;;;7.28;4.00;;;11.20;84.00;;;;;;5050035;28;20059;-52
2023/01/20 01:55:35;;;;;;;9.73;4.97;;;11.20;84.20;;;;;;5058584;28;20725;-59
2023/01/20 01:58:03;;;;;;;7.30;3.85;;;11.20;84.10;;;;;;5049594;28;20052;-59
2023/01/20 02:00:29;;;;;;;7.43;4.32;;;11.10;84.10;;;;;;5058046;28;20040;-59
2023/01/20 02:02:55;;;;;;;4.93;3.72;;;11.10;84.00;;;;;;5053303;28;20033;-58
2023/01/20 02:05:23;;;;;;;5.47;4.05;;;11.10;84.00;;;;;;5053723;28;20027;-59
2023/01/20 02:07:49;;;;;;;5.63;3.97;;;11.10;84.20;;;;;;5056035;28;20064;-59
2023/01/20 02:10:15;;;;;;;6.50;4.00;;;11.10;84.10;;;;;;5055236;28;20120;-57
2023/01/20 02:12:46;;;;;;;7.30;4.30;;;11.10;84.00;;;;;;5048042;28;20037;-55
2023/01/20 02:15:12;;;;;;;8.55;4.10;;;11.10;84.00;;;;;;5054227;28;20024;-53
2023/01/20 02:18:12;;;;;;;5.80;4.15;;;11.10;83.90;;;;;;5064535;28;20028;-56
2023/01/20 02:20:56;;;;;;;4.95;3.95;;;11.00;83.80;;;;;;5049247;28;20040;-56
2023/01/20 02:23:45;;;;;;;5.55;4.07;;;11.00;84.10;;;;;;5056519;28;20021;-55
2023/01/20 02:26:41;;;;;;;7.68;4.30;;;11.00;84.10;;;;;;5024518;28;20044;-55
2023/01/20 02:29:31;;;;;;;8.32;5.13;;;10.90;84.10;;;;;;5053675;28;20052;-56
2023/01/20 02:32:31;;;;;;;5.72;4.03;;;10.90;84.00;;;;;;5052736;28;20044;-52
2023/01/20 02:35:00;;;;;;;5.22;3.70;;;10.90;84.00;;;;;;5050829;28;20040;-55
2023/01/20 02:37:39;;;;;;;7.30;4.35;;;10.80;84.20;;;;;;5050919;28;20028;-57
2023/01/20 02:40:10;;;;;;;7.72;3.88;;;10.80;84.40;;;;;;5052701;28;20522;-55
2023/01/20 02:42:44;;;;;;;6.07;4.13;;;10.80;84.30;;;;;;5049001;28;20029;-55
2023/01/20 02:45:26;;;;;;;5.45;4.05;;;10.80;84.20;;;;;;5060014;28;20048;-56
2023/01/20 02:48:00;;;;;;;8.55;4.05;;;10.80;84.20;;;;;;5055977;28;20029;-56
2023/01/20 02:50:47;;;;;;;6.78;4.38;;;10.70;84.50;;;;;;5055271;28;20040;-56
2023/01/20 02:53:14;;;;;;;5.32;3.50;;;10.80;84.50;;;;;;5056679;28;20345;-61
2023/01/20 02:55:46;;;;;;;6.68;4.30;;;10.70;84.60;;;;;;5050718;28;20608;-56
2023/01/20 02:58:38;;;;;;;5.72;3.88;;;10.70;84.60;;;;;;5053593;28;20021;-55
2023/01/20 03:01:11;;;;;;;6.53;3.63;;;10.70;84.60;;;;;;5056100;28;20135;-55
2023/01/20 03:03:39;;;;;;;6.13;3.95;;;10.80;84.70;;;;;;5046122;28;20029;-56
2023/01/20 03:06:14;;;;;;;6.82;4.32;;;10.80;84.70;;;;;;5050573;28;20057;-61
2023/01/20 03:08:40;;;;;;;6.78;3.83;;;10.80;84.60;;;;;;5055850;28;20098;-61
2023/01/20 03:11:08;;;;;;;4.65;3.63;;;10.80;84.60;;;;;;5057446;28;20040;-62
2023/01/20 03:14:04;;;;;;;5.53;3.85;;;10.80;84.50;;;;;;5059699;28;20040;-61
2023/01/20 03:16:30;;;;;;;8.90;4.05;;;10.80;84.40;;;;;;5054826;28;20040;-56
2023/01/20 03:18:55;;;;;;;6.90;4.07;;;10.80;84.60;;;;;;5049812;28;20041;-56
2023/01/20 03:21:21;;;;;;;6.13;4.10;;;10.80;84.60;;;;;;5054820;28;20036;-52
2023/01/20 03:23:50;;;;;;;6.97;3.70;;;10.80;84.50;;;;;;5055899;28;20025;-50
2023/01/20 03:26:18;;;;;;;5.50;3.60;;;10.80;84.40;;;;;;5058434;28;20036;-47
2023/01/20 03:28:44;;;;;;;7.22;4.00;;;10.80;84.20;;;;;;5054108;28;20131;-57
2023/01/20 03:31:19;;;;;;;6.53;4.50;;;10.80;84.30;;;;;;5052091;28;20033;-52
2023/01/20 03:33:47;;;;;;;5.00;3.65;;;10.70;84.40;;;;;;5051188;28;20060;-53
2023/01/20 03:36:14;;;;;;;6.35;3.97;;;10.70;84.40;;;;;;5046354;28;20029;-55
2023/01/20 03:38:41;;;;;;;7.88;4.45;;;10.70;84.50;;;;;;5056052;28;20025;-57
2023/01/20 03:41:48;;;;;;;5.32;4.03;;;10.70;84.40;;;;;;5053788;28;20119;-60
2023/01/20 03:44:42;;;;;;;5.32;4.13;;;10.70;84.40;;;;;;5048467;28;20395;-60
2023/01/20 03:47:29;;;;;;;6.90;3.83;;;10.70;84.50;;;;;;5057619;28;20103;-61
2023/01/20 03:50:04;;;;;;;7.05;4.32;;;10.70;84.40;;;;;;5045659;28;20068;-59
2023/01/20 03:52:35;;;;;;;6.60;4.30;;;10.70;84.50;;;;;;5059601;28;20491;-62
2023/01/20 03:55:10;;;;;;;5.00;4.03;;;10.70;84.40;;;;;;5055699;28;20029;-60
2023/01/20 03:57:42;;;;;;;10.90;4.65;;;10.60;84.40;;;;;;5053783;28;20037;-62
2023/01/20 04:00:10;;;;;;;7.82;4.10;;;10.60;84.50;;;;;;5046849;28;20040;-61
2023/01/20 04:02:38;;;;;;;6.72;4.43;;;10.60;84.50;;;;;;5059456;28;20040;-59
2023/01/20 04:05:05;;;;;;;5.18;4.07;;;10.60;84.50;;;;;;5050631;28;20041;-62
2023/01/20 04:07:31;;;;;;;6.30;3.85;;;10.60;84.50;;;;;;5052506;28;20119;-62
2023/01/20 04:10:03;;;;;;;7.32;4.07;;;10.50;84.50;;;;;;5047784;28;20028;-62
2023/01/20 04:12:29;;;;;;;6.32;3.60;;;10.50;84.50;;;;;;5050737;28;20025;-62
2023/01/20 04:14:54;;;;;;;6.53;4.13;;;10.50;84.50;;;;;;5055473;28;20044;-60
2023/01/20 04:17:20;;;;;;;6.25;4.13;;;10.50;84.60;;;;;;5054577;28;20032;-60
2023/01/20 04:19:46;;;;;;;6.32;4.07;;;10.50;84.60;;;;;;5055622;28;20037;-61
2023/01/20 04:22:26;;;;;;;6.82;4.15;;;10.40;84.80;;;;;;5051497;28;20032;-61
2023/01/20 04:25:30;;;;;;;7.13;4.28;;;10.40;84.80;;;;;;5057337;28;20055;-62
2023/01/20 04:27:56;;;;;;;4.55;3.67;;;10.40;84.60;;;;;;5042910;28;20045;-62
2023/01/20 04:30:21;;;;;;;6.03;4.28;;;10.40;84.80;;;;;;5048785;28;20357;-61
2023/01/20 04:32:47;;;;;;;7.93;4.63;;;10.40;84.70;;;;;;5053973;28;20037;-61
2023/01/20 04:35:15;;;;;;;6.72;4.15;;;10.40;84.80;;;;;;5056813;28;20475;-62
2023/01/20 04:37:41;;;;;;;7.05;4.32;;;10.30;84.80;;;;;;5057602;28;20502;-62
2023/01/20 04:40:07;;;;;;;6.20;4.50;;;10.30;84.80;;;;;;5055100;28;20037;-59
2023/01/20 04:42:33;;;;;;;8.38;4.90;;;10.30;84.80;;;;;;5054448;28;20021;-62
2023/01/20 04:44:59;;;;;;;6.28;4.10;;;10.30;84.80;;;;;;5060109;28;20155;-61
2023/01/20 04:47:25;;;;;;;6.25;4.30;;;10.30;84.80;;;;;;5053912;28;20459;-59
2023/01/20 04:49:50;;;;;;;6.18;3.95;;;10.30;84.90;;;;;;5053497;28;20045;-61
2023/01/20 04:52:16;;;;;;;6.32;4.15;;;10.30;84.90;;;;;;5051789;28;20036;-60
2023/01/20 04:54:42;;;;;;;6.20;4.18;;;10.30;84.80;;;;;;5054896;28;20025;-57
2023/01/20 04:57:07;;;;;;;6.57;3.78;;;10.30;84.70;;;;;;5060616;28;20024;-50
2023/01/20 04:59:33;;;;;;;6.53;4.43;;;10.30;84.80;;;;;;5056465;28;20464;-46
2023/01/20 05:01:59;;;;;;;7.25;4.50;;;10.30;84.80;;;;;;5053201;28;20029;-47
2023/01/20 05:04:24;;;;;;;5.80;4.50;;;10.30;84.70;;;;;;5050706;28;20032;-51
2023/01/20 05:06:50;;;;;;;5.25;3.90;;;10.30;84.60;;;;;;5054800;28;20124;-49
2023/01/20 05:09:16;;;;;;;7.00;3.88;;;10.30;84.80;;;;;;5051084;28;20080;-55
2023/01/20 05:11:42;;;;;;;4.20;3.80;;;10.30;84.70;;;;;;5054699;28;20033;-62
2023/01/20 05:14:09;;;;;;;5.07;3.80;;;10.30;84.70;;;;;;5046143;28;20041;-60
2023/01/20 05:16:35;;;;;;;7.18;4.13;;;10.30;84.60;;;;;;5055181;28;20195;-58
2023/01/20 05:19:01;;;;;;;4.82;3.85;;;10.30;85.20;;;;;;5054291;28;20029;-59
2023/01/20 05:21:26;;;;;;;7.50;4.10;;;10.20;84.60;;;;;;5043876;28;20075;-60
2023/01/20 05:23:53;;;;;;;6.68;4.43;;;10.30;84.70;;;;;;5056276;28;20076;-62
2023/01/20 05:26:21;;;;;;;6.78;4.13;;;10.30;84.60;;;;;;5052138;28;20420;-48
2023/01/20 05:28:46;;;;;;;6.80;4.47;;;10.30;84.60;;;;;;5053708;28;20041;-54
2023/01/20 05:31:12;;;;;;;5.82;4.72;;;10.30;84.60;;;;;;5054015;28;20074;-47
2023/01/20 05:33:38;;;;;;;6.60;4.10;;;10.30;84.70;;;;;;5058767;28;20779;-45
2023/01/20 05:36:08;;;;;;;7.93;4.10;;;10.30;84.60;;;;;;5055058;28;20692;-53
2023/01/20 05:38:34;;;;;;;6.22;3.97;;;10.30;84.60;;;;;;5056399;28;20021;-52
2023/01/20 05:41:04;;;;;;;7.00;4.20;;;10.20;84.60;;;;;;5048442;28;20064;-59
2023/01/20 05:43:30;;;;;;;7.93;4.35;;;10.20;84.50;;;;;;5047640;28;20498;-58
2023/01/20 05:45:56;;;;;;;5.93;4.60;;;10.20;84.50;;;;;;5053327;28;20045;-56
2023/01/20 05:48:22;;;;;;;5.40;4.40;;;10.30;84.60;;;;;;5056789;28;20115;-59
2023/01/20 05:50:47;;;;;;;6.60;4.40;;;10.20;84.60;;;;;;5050761;28;20043;-58
2023/01/20 05:53:14;;;;;;;6.05;4.65;;;10.20;84.60;;;;;;5052094;28;20516;-58
2023/01/20 05:55:40;;;;;;;7.88;4.35;;;10.20;84.60;;;;;;5041895;28;20035;-58
2023/01/20 05:58:06;;;;;;;5.70;4.38;;;10.30;84.70;;;;;;5047886;28;20037;-58
2023/01/20 06:00:32;;;;;;;7.28;4.72;;;10.20;84.70;;;;;;5048091;28;20456;-54
2023/01/20 06:02:57;;;;;;;5.20;4.20;;;10.20;84.60;;;;;;5057315;28;20040;-53
2023/01/20 06:05:24;;;;;;;6.68;4.47;;;10.30;84.60;;;;;;5059162;28;20102;-56
2023/01/20 06:07:49;;;;;;;5.47;4.28;;;10.30;84.60;;;;;;5051482;28;20060;-54
2023/01/20 06:10:16;;;;;;;6.78;4.35;;;10.30;84.60;;;;;;5041732;28;20168;-55
2023/01/20 06:12:42;;;;;;;5.40;4.28;;;10.30;84.80;;;;;;5049475;28;20048;-57
2023/01/20 06:15:09;;;;;;;6.15;4.93;;;10.30;84.60;;;;;;5050653;28;20032;-57
2023/01/20 06:17:34;;;;;;;6.20;5.10;;;10.30;84.40;;;;;;5052172;28;20029;-57
2023/01/20 06:20:00;;;;;;;8.02;4.78;;;10.30;84.40;;;;;;5043521;28;20509;-58
2023/01/20 06:22:26;;;;;;;5.82;4.53;;;10.40;84.40;;;;;;5048298;28;20024;-57
2023/01/20 06:24:52;;;;;;;8.02;5.07;;;10.40;84.50;;;;;;5046481;28;20079;-57
2023/01/20 06:27:18;;;;;;;5.53;4.22;;;10.50;84.50;;;;;;5055546;28;20035;-55
2023/01/20 06:29:44;;;;;;;5.32;4.18;;;10.50;84.40;;;;;;5043668;28;22279;-54
2023/01/20 06:32:10;;;;;;;5.75;4.03;;;10.60;84.30;;;;;;5026986;28;20496;-58
2023/01/20 06:34:36;;;;;;;6.25;4.53;;;10.60;84.10;;;;;;5034267;28;20024;-58
2023/01/20 06:37:02;;;;;;;5.53;4.00;;;10.70;84.10;;;;;;5044359;28;20064;-58
2023/01/20 06:39:28;;;;;;;4.80;4.28;;;10.70;83.80;;;;;;5046399;28;20025;-58
2023/01/20 06:41:58;;;;;;;4.68;4.03;;;10.80;83.60;;;;;;5045467;28;20033;-61
2023/01/20 06:44:25;;;;;;;6.45;4.20;;;10.80;83.30;;;;;;5048693;28;20053;-59
2023/01/20 06:46:50;;;;;;;6.18;4.13;;;10.80;83.40;;;;;;5044951;28;20037;-59
2023/01/20 06:49:16;;;;;;;7.32;4.28;;;10.90;83.20;;;;;;5048162;28;20355;-62
2023/01/20 06:51:43;;;;;;;6.22;4.32;;;10.90;82.90;;;;;;5041861;28;20686;-61
2023/01/20 06:54:08;;;;;;;6.00;4.18;;;11.00;82.90;;;;;;5045561;28;20601;-60
2023/01/20 06:56:34;;;;;;;7.60;4.30;;;11.00;82.70;;;;;;5042470;28;20034;-60
2023/01/20 06:59:00;;;;;;;6.35;4.30;;;11.00;82.40;;;;;;5037503;28;20029;-61
2023/01/20 07:01:30;;;;;;;6.63;3.92;;;11.10;82.10;;;;;;5042742;28;20044;-60
2023/01/20 07:03:56;;;;;;;6.32;4.53;;;11.10;82.00;;;;;;5042605;28;20037;-58
2023/01/20 07:06:27;;;;;;;6.38;4.50;;;11.10;81.90;;;;;;5036997;28;20032;-59
2023/01/20 07:08:53;;;;;;;5.00;4.13;;;11.20;81.60;;;;;;5045967;28;20052;-61
2023/01/20 07:11:19;;;;;;;5.10;4.50;;;11.20;81.50;;;;;;5043378;28;20048;-60
2023/01/20 07:13:44;;;;;;;6.13;4.38;;;11.20;81.30;;;;;;5044110;28;20041;-61
2023/01/20 07:16:11;;;;;;;7.72;4.60;;;11.20;81.20;;;;;;5036119;28;20040;-59
2023/01/20 07:18:36;;;;;;;5.95;4.22;;;11.30;81.20;;;;;;5040694;28;20388;-59
2023/01/20 07:21:03;;;;;;;5.57;4.20;;;11.30;80.90;;;;;;5038019;28;20033;-58
2023/01/20 07:23:31;;;;;;;5.50;4.15;;;11.30;80.90;;;;;;5038438;28;20029;-62
2023/01/20 07:26:17;;;;;;;4.70;3.83;;;11.30;80.60;;;;;;5036234;28;20043;-63
2023/01/20 07:28:43;;;;;;;5.63;4.13;;;11.30;80.30;;;;;;5045183;28;20496;-62
2023/01/20 07:31:11;;;;;;;5.53;4.25;;;11.40;80.30;;;;;;5035242;28;20036;-59
2023/01/20 07:33:37;;;;;;;7.35;4.43;;;11.40;80.00;;;;;;5045391;28;20116;-60
2023/01/20 07:36:04;;;;;;;5.03;4.07;;;11.40;80.00;;;;;;5044312;28;20591;-59
2023/01/20 07:38:30;;;;;;;7.32;4.28;;;11.40;80.00;;;;;;5039132;28;20029;-62
2023/01/20 07:41:00;;;;;;;5.38;4.32;;;11.40;79.80;;;;;;5034720;28;20045;-60
2023/01/20 07:43:26;;;;;;;5.38;4.10;;;11.40;79.80;;;;;;5027286;28;21320;-59
2023/01/20 07:45:59;;;;;;;5.35;4.22;;;11.50;79.80;;;;;;5032901;28;20049;-60
2023/01/20 07:48:26;;;;;;;6.45;4.78;;;11.50;79.70;;;;;;5023062;28;20029;-57
2023/01/20 07:51:04;;;;;;;5.20;4.20;;;11.50;79.70;;;;;;5026767;28;20045;-59
2023/01/20 07:53:31;;;;;;;6.60;4.68;;;11.60;79.70;;;;;;5018750;28;20066;-58
2023/01/20 07:56:01;;;;;;;5.32;4.65;;;11.70;79.70;;;;;;5024066;28;20033;-60
2023/01/20 07:58:28;;;;;;;6.75;4.85;;;11.80;79.60;;;;;;5034153;28;20029;-58
2023/01/20 08:00:54;;;;;;;6.75;4.85;;;11.80;79.60;;;;;;5023341;28;20372;-57
2023/01/20 08:03:20;;;;;;;6.50;5.22;;;11.90;79.50;;;;;;5020398;28;20037;-61
2023/01/20 08:05:46;;;;;;;13.00;5.80;;;12.10;79.30;;;;;;5025563;28;20041;-59
2023/01/20 08:08:12;;;;;;;8.35;5.13;;;12.10;78.80;;;;;;5024297;28;20037;-61
2023/01/20 08:10:37;;;;;;;6.90;5.70;;;12.20;78.80;;;;;;5029249;28;20036;-59
2023/01/20 08:13:03;;;;;;;7.38;4.93;;;12.30;78.80;;;;;;5027095;28;20037;-58
2023/01/20 08:15:29;;;;;;;9.20;5.72;;;12.40;79.10;;;;;;5033665;28;20037;-59
2023/01/20 08:17:56;;;;;;;8.07;5.10;;;12.50;78.10;;;;;;5027010;28;20037;-59
2023/01/20 08:20:22;;;;;;;7.93;5.70;;;12.60;77.90;;;;;;5024227;28;20041;-58
2023/01/20 08:22:48;;;;;;;5.85;4.82;;;12.60;77.40;;;;;;5017684;28;20118;-59
2023/01/20 08:25:14;;;;;;;5.50;4.35;;;12.70;76.90;;;;;;5020975;28;20167;-58
2023/01/20 08:27:39;;;;;;;7.85;4.53;;;12.70;76.60;;;;;;5025768;28;20569;-59
2023/01/20 08:30:06;;;;;;;5.28;4.15;;;12.70;76.50;;;;;;5029682;28;20037;-58
2023/01/20 08:32:31;;;;;;;5.47;4.53;;;12.80;76.20;;;;;;5027437;28;20041;-61
2023/01/20 08:34:57;;;;;;;5.97;4.47;;;12.80;76.00;;;;;;5025266;28;20037;-61
2023/01/20 08:37:23;;;;;;;6.78;4.78;;;12.80;75.90;;;;;;5027045;28;20033;-60
2023/01/20 08:39:48;;;;;;;6.75;4.60;;;12.80;75.70;;;;;;5021688;28;20732;-59
2023/01/20 08:42:14;;;;;;;5.57;4.50;;;12.90;75.40;;;;;;5031365;28;20627;-60
2023/01/20 08:44:40;;;;;;;6.57;4.70;;;12.90;75.30;;;;;;5038724;28;20044;-61
2023/01/20 08:47:05;;;;;;;5.47;4.53;;;12.90;75.10;;;;;;5026559;28;20087;-59
2023/01/20 08:49:31;;;;;;;5.38;4.20;;;13.00;74.80;;;;;;5033957;28;20112;-61
2023/01/20 08:51:57;;;;;;;4.38;3.95;;;13.00;74.50;;;;;;5022065;28;20037;-56
2023/01/20 08:54:23;;;;;;;6.72;4.68;;;13.10;74.60;;;;;;5028043;28;20765;-58
2023/01/20 08:56:50;;;;;;;6.38;4.60;;;13.10;74.30;;;;;;5024222;28;20037;-58
2023/01/20 08:59:15;;;;;;;5.15;4.28;;;13.20;74.00;;;;;;5021542;28;20048;-59
2023/01/20 09:01:42;;;;;;;4.97;4.47;;;13.20;73.80;;;;;;5020117;28;20605;-62
2023/01/20 09:04:08;;;;;;;8.02;4.38;;;13.30;73.60;;;;;;5023565;28;20150;-59
2023/01/20 09:06:43;;;;;;;5.65;4.80;;;13.30;73.30;;;;;;5021599;28;20621;-60
2023/01/20 09:09:09;;;;;;;5.80;4.60;;;13.40;73.20;;;;;;5023117;28;22647;-60
2023/01/20 09:11:35;;;;;;;7.07;4.22;;;13.40;73.00;;;;;;5022813;28;20033;-59
2023/01/20 09:14:01;;;;;;;5.57;4.85;;;13.50;73.40;;;;;;5010433;28;20056;-58
2023/01/20 09:16:27;;;;;;;4.93;3.67;;;13.50;72.50;;;;;;5022777;28;20782;-62
2023/01/20 09:18:52;;;;;;;5.50;4.53;;;13.60;72.40;;;;;;5023049;28;20025;-61
2023/01/20 09:21:18;;;;;;;4.80;3.95;;;13.60;72.00;;;;;;5012055;28;20033;-64
2023/01/20 09:23:46;;;;;;;7.40;4.65;;;13.70;71.70;;;;;;5011268;28;20155;-58
2023/01/20 09:26:12;;;;;;;6.00;4.15;;;13.70;72.10;;;;;;5015870;28;20036;-62
2023/01/20 09:28:38;;;;;;;6.22;3.95;;;13.80;71.30;;;;;;5005265;28;20163;-59
2023/01/20 09:31:07;;;;;;;4.68;4.13;;;13.80;71.30;;;;;;5022244;28;20068;-61
2023/01/20 09:33:35;;;;;;;5.82;4.30;;;13.80;70.90;;;;;;5028295;28;20059;-60
2023/01/20 09:36:01;;;;;;;5.85;3.97;;;13.80;70.60;;;;;;5014540;28;20040;-60
2023/01/20 09:44:19;;;;;;;6.25;3.70;;;13.80;70.10;;;;;;5023876;28;20102;-59
2023/01/20 09:47:20;;;;;;;4.00;3.60;;;13.90;70.10;;;;;;5014991;28;20040;-57
2023/01/20 09:53:03;;;;;;;3.88;3.35;;;13.90;69.90;;;;;;5012879;28;21050;-57
2023/01/20 09:55:52;;;;;;;5.47;3.55;;;14.00;69.90;;;;;;5018034;28;20056;-60
2023/01/20 09:59:02;;;;;;;7.00;3.85;;;14.00;69.50;;;;;;5018480;28;20060;-60
2023/01/20 10:02:03;;;;;;;5.90;3.60;;;14.10;69.20;;;;;;4933840;28;20041;-56
2023/01/20 10:05:13;;;;;;;4.47;3.60;;;14.10;69.00;;;;;;4999096;28;20041;-56
2023/01/20 10:07:41;;;;;;;4.30;3.50;;;14.20;68.40;;;;;;4997820;28;20064;-61
2023/01/20 10:10:16;;;;;;;5.65;3.70;;;14.20;68.20;;;;;;5006276;28;20377;-58
2023/01/20 10:12:53;;;;;;;4.05;3.10;;;14.20;68.20;;;;;;5012577;28;20064;-57
2023/01/20 10:15:28;;;;;;;4.97;3.58;;;14.20;68.20;;;;;;5021055;28;20038;-59
2023/01/20 10:18:13;;;;;;;5.15;3.70;;;14.20;68.00;;;;;;5006451;28;20037;-59
2023/01/20 10:21:19;;;;;;;4.43;3.25;;;14.30;67.80;;;;;;5011734;28;20041;-56
2023/01/20 10:23:59;;;;;;;4.50;3.70;;;14.30;67.80;;;;;;5016426;28;20030;-56
2023/01/20 10:26:32;;;;;;;5.15;3.80;;;14.30;67.60;;;;;;5014036;28;20036;-58
2023/01/20 10:29:05;;;;;;;4.65;3.40;;;14.40;67.40;;;;;;5012689;28;20035;-59
2023/01/20 10:31:42;;;;;;;4.80;3.40;;;14.40;67.30;;;;;;5011016;28;20037;-58
2023/01/20 10:34:17;;;;;;;7.25;3.67;;;14.50;67.30;;;;;;5017539;28;20041;-59
2023/01/20 10:36:46;;;;;;;5.53;3.90;;;14.50;67.30;;;;;;5016394;28;20136;-56
2023/01/20 10:39:15;;;;;;;5.78;4.18;;;14.60;67.20;;;;;;5011709;28;20128;-55
2023/01/20 10:41:53;;;;;;;5.55;3.58;;;14.60;66.80;;;;;;5014405;28;20110;-56
2023/01/20 10:44:18;;;;;;;5.45;4.00;;;14.70;66.60;;;;;;5015702;28;20102;-55
2023/01/20 10:47:09;;;;;;;4.57;3.50;;;14.70;66.30;;;;;;5014016;28;20629;-55
2023/01/20 10:49:55;;;;;;;5.30;3.83;;;14.70;66.10;;;;;;5016981;28;20037;-53
2023/01/20 10:52:36;;;;;;;5.22;4.00;;;14.70;66.00;;;;;;5018569;28;20167;-57
2023/01/20 10:55:17;;;;;;;5.85;3.80;;;14.80;65.80;;;;;;5016931;28;20043;-58
2023/01/20 10:57:46;;;;;;;3.47;3.17;;;14.80;65.80;;;;;;5014833;28;20063;-59
2023/01/20 11:00:23;;;;;;;5.90;3.55;;;14.80;65.80;;;;;;5017882;28;20039;-59
2023/01/20 11:02:51;;;;;;;4.90;3.55;;;14.80;65.70;;;;;;5011424;28;20037;-58
2023/01/20 11:05:36;;;;;;;6.68;4.18;;;14.80;65.60;;;;;;5008753;28;20470;-59
2023/01/20 11:08:08;;;;;;;5.13;3.60;;;14.90;65.30;;;;;;5020036;28;20029;-59
2023/01/20 11:10:34;;;;;;;5.90;4.57;;;14.90;64.90;;;;;;5017056;28;20038;-61
2023/01/20 11:13:02;;;;;;;7.65;4.80;;;14.90;64.40;;;;;;5028911;28;20056;-57
2023/01/20 11:15:34;;;;;;;7.03;4.07;;;14.80;64.10;;;;;;5033138;28;21009;-59
2023/01/20 11:18:15;;;;;;;5.38;4.32;;;14.70;63.90;;;;;;5028456;28;20039;-58
2023/01/20 11:21:03;;;;;;;5.67;4.10;;;14.70;64.00;;;;;;5021482;28;20041;-58
2023/01/20 11:23:38;;;;;;;5.65;4.68;;;14.60;64.20;;;;;;5021744;28;20274;-59
2023/01/20 11:26:18;;;;;;;6.93;4.95;;;14.50;64.30;;;;;;5028064;28;20915;-59
2023/01/20 11:29:00;;;;;;;6.85;4.90;;;14.50;64.30;;;;;;5020770;28;20033;-57
2023/01/20 11:31:46;;;;;;;7.57;5.53;;;14.40;64.30;;;;;;5021351;28;20038;-57
2023/01/20 11:34:31;;;;;;;8.23;5.63;;;14.30;64.10;;;;;;5021718;28;20036;-56
2023/01/20 11:37:03;;;;;;;7.78;5.30;;;14.20;64.00;;;;;;5024512;28;20033;-57
2023/01/20 11:39:32;;;;;;;8.30;6.00;;;14.10;64.30;;;;;;5019668;28;20029;-54
2023/01/20 11:42:27;;;;;;;9.52;5.97;;;14.00;64.40;;;;;;5024698;28;20168;-59
2023/01/20 11:45:01;;;;;;;9.70;6.05;;;13.90;64.50;;;;;;5016017;28;20064;-59
2023/01/20 11:47:32;;;;;;;9.80;6.63;;;13.90;64.60;;;;;;5025493;28;20913;-61
2023/01/20 11:50:04;;;;;;;;;;;13.70;64.50;;;;;;5024758;28;20032;-60
2023/01/20 11:52:31;;;;;;;6.82;5.43;;;13.60;64.60;;;;;;5019462;28;19923;-58
2023/01/20 11:55:23;;;;;;;10.55;6.85;;;13.50;65.20;;;;;;5017275;28;20037;-59
2023/01/20 11:57:56;;;;;;;;;;;13.40;64.90;;;;;;5010492;28;20076;-57
2023/01/20 12:00:40;;;;;;;8.95;6.13;;;13.20;64.20;;;;;;5011075;28;20557;-59
2023/01/20 12:03:42;;;;;;;10.73;6.22;;;12.90;64.60;;;;;;5008858;28;20075;-58
2023/01/20 12:06:42;;;;;;;10.27;7.45;;;12.60;65.00;;;;;;5009775;28;20029;-58
2023/01/20 12:09:15;;;;;;;9.30;6.88;;;12.30;65.10;;;;;;5017073;28;20075;-58
2023/01/20 12:12:20;;;;;;;10.95;6.97;;;12.10;65.60;;;;;;5014049;28;21257;-62
2023/01/20 12:14:53;;;;;;;10.52;6.97;;;11.90;65.80;;;;;;5008034;28;20112;-58
2023/01/20 12:17:39;;;;;;;11.65;7.40;;;11.60;66.10;;;;;;5020441;28;20037;-62
2023/01/20 12:20:20;;;;;;;13.32;9.30;;;11.40;66.20;;;;;;5021388;28;20463;-58
2023/01/20 12:22:54;;;;;;;9.40;7.30;;;11.20;66.60;;;;;;5018705;28;20032;-60
2023/01/20 12:25:28;;;;;;;12.68;8.25;;;10.90;67.00;;;;;;5021062;28;20038;-58
2023/01/20 12:28:38;;;;;;;14.50;9.27;;;10.80;67.40;;;;;;5012853;28;20045;-59
2023/01/20 12:31:08;;;;;;;11.32;8.27;;;10.60;67.80;;;;;;5013181;28;20041;-58
2023/01/20 12:33:40;;;;;;;10.25;7.78;;;10.40;67.90;;;;;;5009894;28;20047;-61
2023/01/20 12:36:33;;;;;;;10.18;8.07;;;10.30;68.10;;;;;;5012293;28;20169;-60
2023/01/20 12:39:08;;;;;;;12.82;8.68;;;10.20;68.40;;;;;;5009211;28;20079;-60
2023/01/20 12:42:11;;;;;;;12.85;8.38;;;10.00;68.50;;;;;;5019416;28;20029;-60
2023/01/20 12:44:42;;;;;;;11.82;8.80;;;9.90;68.70;;;;;;5009471;28;20085;-56
2023/01/20 12:47:14;;;;;;;10.48;7.90;;;9.80;69.10;;;;;;5006969;28;20075;-58
2023/01/20 12:49:50;;;;;;;;;;;9.80;69.10;;;;;;5015986;28;20037;-59
2023/01/20 12:52:24;;;;;;;12.25;8.35;;;9.70;69.10;;;;;;5024319;28;19925;-61
2023/01/20 12:55:08;;;;;;;11.80;7.97;;;9.60;69.40;;;;;;5016545;28;20060;-58
2023/01/20 12:57:34;;;;;;;13.38;9.30;;;9.60;69.70;;;;;;5008212;28;20028;-59
2023/01/20 13:00:19;;;;;;;12.20;8.60;;;9.50;69.60;;;;;;5023653;28;20456;-59
2023/01/20 13:02:48;;;;;;;13.80;9.13;;;9.40;69.60;;;;;;5015565;28;20033;-60
2023/01/20 13:05:20;;;;;;;13.15;8.60;;;9.30;69.80;;;;;;5032035;28;20156;-59
2023/01/20 13:08:01;;;;;;;11.40;8.73;;;9.20;70.20;;;;;;5028409;28;20040;-61
2023/01/20 13:11:04;;;;;;;13.52;9.63;;;9.10;70.60;;;;;;5024696;28;20037;-59
2023/01/20 13:13:39;;;;;;;16.95;9.82;;;9.10;70.90;;;;;;5023207;28;20127;-59
2023/01/20 13:16:05;;;;;;;12.30;9.35;;;9.10;71.10;;;;;;5022116;28;20033;-59
2023/01/20 13:19:02;;;;;;;15.15;10.10;;;9.00;71.30;;;;;;5024320;28;21331;-57